createdAt,value
2017-12-28T15:01:45.651Z,0.50
2017-12-28T15:04:14.787Z,0.50
2017-12-28T15:06:43.162Z,0.50
2017-12-28T15:09:11.546Z,0.60
2017-12-28T15:11:39.918Z,0.60
2017-12-28T15:14:08.295Z,0.60
2017-12-28T15:16:36.775Z,0.60
2017-12-28T15:19:05.177Z,0.50
2017-12-28T15:21:33.733Z,0.50
2017-12-28T15:24:02.109Z,0.50
2017-12-28T15:26:30.485Z,0.50
2017-12-28T15:28:59.625Z,0.50
2017-12-28T15:31:28.009Z,0.50
2017-12-28T15:33:56.381Z,0.50
2017-12-28T15:36:24.761Z,0.50
2017-12-28T15:38:53.166Z,0.50
2017-12-28T15:41:22.296Z,0.50
2017-12-28T15:43:50.662Z,0.50
2017-12-28T15:46:19.148Z,0.50
2017-12-28T15:48:47.518Z,0.60
2017-12-28T15:51:15.902Z,0.50
2017-12-28T15:53:44.725Z,0.50
2017-12-28T15:56:13.108Z,0.50
2017-12-28T15:58:41.494Z,0.60
2017-12-28T16:01:09.870Z,0.50
2017-12-28T16:03:38.245Z,0.50
2017-12-28T16:06:06.621Z,0.50
2017-12-28T16:08:35.005Z,0.50
2017-12-28T16:11:03.396Z,0.50
2017-12-28T16:13:31.771Z,0.40
2017-12-28T16:16:00.159Z,0.40
2017-12-28T16:18:29.289Z,0.40
2017-12-28T16:20:57.676Z,0.40
2017-12-28T16:23:26.060Z,0.40
2017-12-28T16:25:54.455Z,0.40
2017-12-28T16:28:22.833Z,0.40
2017-12-28T16:30:51.215Z,0.40
2017-12-28T16:33:19.590Z,0.40
2017-12-28T16:35:47.969Z,0.30
2017-12-28T16:38:16.178Z,0.30
2017-12-28T16:40:45.314Z,0.30
2017-12-28T16:43:13.689Z,0.30
2017-12-28T16:45:41.874Z,0.30
2017-12-28T16:48:10.613Z,0.30
2017-12-28T16:50:39.753Z,0.30
2017-12-28T16:53:08.221Z,0.30
2017-12-28T16:55:36.588Z,0.30
2017-12-28T16:58:04.969Z,0.30
2017-12-28T17:00:33.349Z,0.20
2017-12-28T17:03:01.713Z,0.20
2017-12-28T17:05:30.092Z,0.20
2017-12-28T17:07:58.481Z,0.20
2017-12-28T17:10:26.857Z,0.20
2017-12-28T17:12:55.231Z,0.20
2017-12-28T17:15:23.606Z,0.20
2017-12-28T17:17:51.978Z,0.20
2017-12-28T17:20:20.362Z,0.20
2017-12-28T17:22:48.982Z,0.20
2017-12-28T17:25:17.676Z,0.20
2017-12-28T17:27:46.368Z,0.30
2017-12-28T17:30:15.023Z,0.20
2017-12-28T17:32:43.401Z,0.30
2017-12-28T17:35:11.781Z,0.30
2017-12-28T17:37:40.440Z,0.30
2017-12-28T17:40:09.081Z,0.30
2017-12-28T17:42:37.727Z,0.30
2017-12-28T17:45:06.281Z,0.20
2017-12-28T17:47:34.665Z,0.20
2017-12-28T17:50:03.055Z,0.20
2017-12-28T17:52:31.465Z,0.30
2017-12-28T17:55:00.111Z,0.20
2017-12-28T17:57:28.494Z,0.20
2017-12-28T17:59:57.922Z,0.20
2017-12-28T18:02:26.577Z,0.20
2017-12-28T18:04:54.952Z,0.20
2017-12-28T18:07:24.216Z,0.20
2017-12-28T18:09:53.366Z,0.10
2017-12-28T18:12:21.812Z,0.10
2017-12-28T18:14:50.308Z,0.10
2017-12-28T18:17:18.944Z,0.10
2017-12-28T18:19:48.410Z,0.10
2017-12-28T18:22:17.832Z,0.10
2017-12-28T18:24:46.374Z,0.10
2017-12-28T18:27:15.775Z,0.00
2017-12-28T18:29:44.158Z,0.00
2017-12-28T18:32:12.808Z,0.00
2017-12-28T18:34:41.233Z,0.00
2017-12-28T18:37:10.682Z,0.00
2017-12-28T18:39:39.144Z,0.00
2017-12-28T18:42:08.512Z,-0.10
2017-12-28T18:44:37.093Z,-0.10
2017-12-28T18:47:06.506Z,-0.10
2017-12-28T18:49:35.930Z,-0.20
2017-12-28T18:52:04.646Z,-0.20
2017-12-28T18:54:33.209Z,-0.20
2017-12-28T18:57:01.852Z,-0.20
2017-12-28T18:59:30.239Z,-0.20
2017-12-28T19:01:59.007Z,-0.20
2017-12-28T19:04:28.429Z,-0.20
2017-12-28T19:06:56.929Z,-0.30
2017-12-28T19:09:25.917Z,-0.30
2017-12-28T19:11:54.313Z,-0.30
2017-12-28T19:14:23.889Z,-0.20
2017-12-28T19:16:52.265Z,-0.30
2017-12-28T19:19:21.809Z,-0.30
2017-12-28T19:21:50.465Z,-0.30
2017-12-28T19:24:18.861Z,-0.30
2017-12-28T19:26:47.237Z,-0.30
2017-12-28T19:29:15.905Z,-0.30
2017-12-28T19:31:44.580Z,-0.30
2017-12-28T19:34:13.009Z,-0.30
2017-12-28T19:36:42.160Z,-0.30
2017-12-28T19:39:10.534Z,-0.30
2017-12-28T19:41:38.901Z,-0.30
2017-12-28T19:44:07.424Z,-0.30
2017-12-28T19:46:35.796Z,-0.30
2017-12-28T19:49:03.832Z,-0.30
2017-12-28T19:51:32.218Z,-0.30
2017-12-28T19:54:00.594Z,-0.30
2017-12-28T19:56:28.976Z,-0.30
2017-12-28T19:58:57.033Z,-0.40
2017-12-28T20:01:26.445Z,-0.30
2017-12-28T20:03:55.146Z,-0.30
2017-12-28T20:06:23.876Z,-0.30
2017-12-28T20:08:52.281Z,-0.30
2017-12-28T20:11:20.949Z,-0.30
2017-12-28T20:13:49.621Z,-0.40
2017-12-28T20:16:18.005Z,-0.40
2017-12-28T20:18:46.401Z,-0.40
2017-12-28T20:21:14.793Z,-0.40
2017-12-28T20:23:43.488Z,-0.40
2017-12-28T20:26:12.141Z,-0.40
2017-12-28T20:28:40.527Z,-0.40
2017-12-28T20:31:09.939Z,-0.40
2017-12-28T20:33:38.628Z,-0.40
2017-12-28T20:36:07.189Z,-0.40
2017-12-28T20:38:35.592Z,-0.40
2017-12-28T20:41:04.158Z,-0.40
2017-12-28T20:43:33.584Z,-0.40
2017-12-28T20:46:02.260Z,-0.40
2017-12-28T20:48:30.634Z,-0.40
2017-12-28T20:50:59.040Z,-0.40
2017-12-28T20:53:27.414Z,-0.40
2017-12-28T20:55:55.790Z,-0.40
2017-12-28T20:58:24.354Z,-0.40
2017-12-28T21:00:52.740Z,-0.40
2017-12-28T21:03:21.414Z,-0.40
2017-12-28T21:05:50.205Z,-0.40
2017-12-28T21:08:19.484Z,-0.30
2017-12-28T21:10:48.170Z,-0.40
2017-12-28T21:13:17.611Z,-0.40
2017-12-28T21:15:45.985Z,-0.40
2017-12-28T21:18:14.361Z,-0.30
2017-12-28T21:20:42.419Z,-0.40
2017-12-28T21:23:10.881Z,-0.40
2017-12-28T21:25:39.586Z,-0.40
2017-12-28T21:28:07.975Z,-0.30
2017-12-28T21:30:37.462Z,-0.30
2017-12-28T21:33:06.271Z,-0.40
2017-12-28T21:35:35.456Z,-0.40
2017-12-28T21:38:03.836Z,-0.40
2017-12-28T21:40:32.525Z,-0.40
2017-12-28T21:43:00.904Z,-0.50
2017-12-28T21:45:29.550Z,-0.40
2017-12-28T21:47:58.228Z,-0.40
2017-12-28T21:50:27.444Z,-0.50
2017-12-28T21:52:56.092Z,-0.50
2017-12-28T21:55:24.748Z,-0.50
2017-12-28T21:57:53.378Z,-0.50
2017-12-28T22:00:21.562Z,-0.50
2017-12-28T22:02:50.062Z,-0.60
2017-12-28T22:05:18.741Z,-0.50
2017-12-28T22:07:47.126Z,-0.50
2017-12-28T22:10:15.777Z,-0.60
2017-12-28T22:12:44.429Z,-0.60
2017-12-28T22:15:13.075Z,-0.60
2017-12-28T22:17:41.777Z,-0.60
2017-12-28T22:20:10.353Z,-0.60
2017-12-28T22:22:38.725Z,-0.60
2017-12-28T22:25:07.373Z,-0.60
2017-12-28T22:27:35.767Z,-0.60
2017-12-28T22:30:04.055Z,-0.60
2017-12-28T22:32:32.432Z,-0.60
2017-12-28T22:35:00.813Z,-0.50
2017-12-28T22:37:29.218Z,-0.50
2017-12-28T22:39:57.594Z,-0.50
2017-12-28T22:42:25.978Z,-0.60
2017-12-28T22:44:55.122Z,-0.60
2017-12-28T22:47:23.498Z,-0.50
2017-12-28T22:49:51.922Z,-0.50
2017-12-28T22:52:20.303Z,-0.50
2017-12-28T22:54:48.685Z,-0.60
2017-12-28T22:57:17.858Z,-0.60
2017-12-28T22:59:46.241Z,-0.60
2017-12-28T23:02:15.397Z,-0.70
2017-12-28T23:04:43.785Z,-0.70
2017-12-28T23:07:12.165Z,-0.70
2017-12-28T23:09:40.557Z,-0.80
2017-12-28T23:12:08.953Z,-0.80
2017-12-28T23:14:37.328Z,-0.90
2017-12-28T23:17:06.478Z,-0.90
2017-12-28T23:19:34.870Z,-0.90
2017-12-28T23:22:03.266Z,-0.90
2017-12-28T23:24:31.648Z,-1.00
2017-12-28T23:27:00.041Z,-1.00
2017-12-28T23:29:28.432Z,-1.00
2017-12-28T23:31:57.566Z,-1.00
2017-12-28T23:34:25.758Z,-1.00
2017-12-28T23:36:54.141Z,-1.00
2017-12-28T23:39:22.539Z,-1.00
2017-12-28T23:41:52.445Z,-0.90
2017-12-28T23:44:20.855Z,-0.90
2017-12-28T23:46:49.258Z,-0.90
2017-12-28T23:49:17.649Z,-0.90
2017-12-28T23:51:46.085Z,-0.90
2017-12-28T23:54:15.237Z,-0.80
2017-12-28T23:56:43.617Z,-0.80
2017-12-28T23:59:11.996Z,-0.90
